createdAt,value
2018-06-19T00:00:52.733Z,4.00
2018-06-19T00:03:20.299Z,3.50
2018-06-19T00:05:47.851Z,3.70
2018-06-19T00:08:15.412Z,3.70
2018-06-19T00:10:42.963Z,4.63
2018-06-19T00:13:10.564Z,3.60
2018-06-19T00:15:38.146Z,3.80
2018-06-19T00:18:08.153Z,4.00
2018-06-19T00:20:35.765Z,4.33
2018-06-19T00:23:03.341Z,4.17
2018-06-19T00:25:30.892Z,3.20
2018-06-19T00:27:58.456Z,3.93
2018-06-19T00:30:26.004Z,3.70
2018-06-19T00:32:53.631Z,4.20
2018-06-19T00:35:21.183Z,3.90
2018-06-19T00:37:48.776Z,3.70
2018-06-19T00:40:16.338Z,3.80
2018-06-19T00:42:43.885Z,3.63
2018-06-19T00:45:11.460Z,3.50
2018-06-19T00:47:39.035Z,3.00
2018-06-19T00:50:06.604Z,3.53
2018-06-19T00:52:34.206Z,4.53
2018-06-19T00:55:01.766Z,3.60
2018-06-19T00:57:29.329Z,4.30
2018-06-19T00:59:56.925Z,3.77
2018-06-19T01:02:24.498Z,4.00
2018-06-19T01:04:52.082Z,3.80
2018-06-19T01:07:19.643Z,4.07
2018-06-19T01:09:47.203Z,3.50
2018-06-19T01:12:14.793Z,3.80
2018-06-19T01:14:42.364Z,3.30
2018-06-19T01:17:09.977Z,4.40
2018-06-19T01:19:37.620Z,3.47
2018-06-19T01:22:05.219Z,3.27
2018-06-19T01:24:32.794Z,3.90
2018-06-19T01:27:00.405Z,3.70
2018-06-19T01:29:28.013Z,4.20
2018-06-19T01:31:55.560Z,3.77
2018-06-19T01:34:23.144Z,3.30
2018-06-19T01:36:50.729Z,3.63
2018-06-19T01:39:18.267Z,3.67
2018-06-19T01:41:45.823Z,3.20
2018-06-19T01:44:13.377Z,3.80
2018-06-19T01:46:40.950Z,3.57
2018-06-19T01:49:08.499Z,3.63
2018-06-19T01:51:36.061Z,4.17
2018-06-19T01:54:03.631Z,4.37
2018-06-19T01:56:31.226Z,3.53
2018-06-19T01:58:58.792Z,4.00
2018-06-19T02:01:26.351Z,3.40
2018-06-19T02:03:53.909Z,4.17
2018-06-19T02:06:21.486Z,3.90
2018-06-19T02:08:49.094Z,4.50
2018-06-19T02:11:16.649Z,3.97
2018-06-19T02:13:44.214Z,4.10
2018-06-19T02:16:11.769Z,4.00
2018-06-19T02:18:39.340Z,3.60
2018-06-19T02:21:06.949Z,4.13
2018-06-19T02:23:34.544Z,3.63
2018-06-19T02:26:02.170Z,3.60
2018-06-19T02:28:29.741Z,4.07
2018-06-19T02:30:57.352Z,3.60
2018-06-19T02:33:24.897Z,4.13
2018-06-19T02:35:52.435Z,4.10
2018-06-19T02:38:20.020Z,3.60
2018-06-19T02:40:47.603Z,4.03
2018-06-19T02:43:15.147Z,4.00
2018-06-19T02:45:42.710Z,4.23
2018-06-19T02:48:10.298Z,3.73
2018-06-19T02:50:37.934Z,3.90
2018-06-19T02:53:05.558Z,3.50
2018-06-19T02:55:33.112Z,3.37
2018-06-19T02:58:00.673Z,3.70
2018-06-19T03:00:28.251Z,3.53
2018-06-19T03:02:55.801Z,3.33
2018-06-19T03:05:23.362Z,3.67
2018-06-19T03:07:51.013Z,4.10
2018-06-19T03:10:18.669Z,3.83
2018-06-19T03:12:46.234Z,3.77
2018-06-19T03:15:13.828Z,4.10
2018-06-19T03:17:41.482Z,4.37
2018-06-19T03:20:09.040Z,3.73
2018-06-19T03:22:36.604Z,4.17
2018-06-19T03:25:04.217Z,4.00
2018-06-19T03:27:31.809Z,3.87
2018-06-19T03:29:59.384Z,3.90
2018-06-19T03:32:26.959Z,3.83
2018-06-19T03:34:54.503Z,4.27
2018-06-19T03:37:22.099Z,4.40
2018-06-19T03:39:49.686Z,4.63
2018-06-19T03:42:17.253Z,4.00
2018-06-19T03:44:44.805Z,3.83
2018-06-19T03:47:12.375Z,4.17
2018-06-19T03:49:39.960Z,4.50
2018-06-19T03:52:07.564Z,4.63
2018-06-19T03:54:35.145Z,4.77
2018-06-19T03:57:02.759Z,5.23
2018-06-19T03:59:30.304Z,3.80
2018-06-19T04:01:57.954Z,3.77
2018-06-19T04:04:25.514Z,4.40
2018-06-19T04:06:53.067Z,4.17
2018-06-19T04:09:20.629Z,4.47
2018-06-19T04:11:48.197Z,4.27
2018-06-19T04:14:15.753Z,4.90
2018-06-19T04:16:43.385Z,4.50
2018-06-19T04:19:10.955Z,4.03
2018-06-19T04:21:38.518Z,4.50
2018-06-19T04:24:06.068Z,4.03
2018-06-19T04:26:33.631Z,4.50
2018-06-19T04:29:01.189Z,4.50
2018-06-19T04:31:28.760Z,4.10
2018-06-19T04:33:56.316Z,4.00
2018-06-19T04:36:23.968Z,4.70
2018-06-19T04:38:51.541Z,4.30
2018-06-19T04:41:19.075Z,4.10
2018-06-19T04:43:46.777Z,4.03
2018-06-19T04:46:14.368Z,4.23
2018-06-19T04:48:41.928Z,4.47
2018-06-19T04:51:09.470Z,3.50
2018-06-19T04:53:37.044Z,3.90
2018-06-19T04:56:04.614Z,4.23
2018-06-19T04:58:32.266Z,4.90
2018-06-19T05:00:59.811Z,4.90
2018-06-19T05:03:27.370Z,4.00
2018-06-19T05:05:54.944Z,4.00
2018-06-19T05:08:22.492Z,4.43
2018-06-19T05:10:50.053Z,4.23
2018-06-19T05:13:17.616Z,4.50
2018-06-19T05:15:45.192Z,3.90
2018-06-19T05:18:12.757Z,4.03
2018-06-19T05:20:40.328Z,4.03
2018-06-19T05:23:07.889Z,4.30
2018-06-19T05:25:35.461Z,4.53
2018-06-19T05:28:03.064Z,4.20
2018-06-19T05:30:30.652Z,4.43
2018-06-19T05:32:58.231Z,4.00
2018-06-19T05:35:25.862Z,4.20
2018-06-19T05:37:53.470Z,3.83
2018-06-19T05:40:21.066Z,4.37
2018-06-19T05:42:48.640Z,4.00
2018-06-19T05:45:16.221Z,4.20
2018-06-19T05:47:43.799Z,4.53
2018-06-19T05:50:11.413Z,4.33
2018-06-19T05:52:39.000Z,3.40
2018-06-19T05:55:06.622Z,3.50
2018-06-19T05:57:34.196Z,3.60
2018-06-19T06:00:01.869Z,3.50
2018-06-19T06:02:29.466Z,3.70
2018-06-19T06:04:57.053Z,3.53
2018-06-19T06:07:24.686Z,3.50
2018-06-19T06:09:52.296Z,3.70
2018-06-19T06:12:19.904Z,3.90
2018-06-19T06:14:47.551Z,3.00
2018-06-19T06:17:15.115Z,3.90
2018-06-19T06:19:42.781Z,2.90
2018-06-19T06:22:10.360Z,3.17
2018-06-19T06:24:38.003Z,2.80
2018-06-19T06:27:06.193Z,3.30
2018-06-19T06:29:33.771Z,2.97
2018-06-19T06:32:01.336Z,3.03
2018-06-19T06:34:28.885Z,2.73
2018-06-19T06:36:56.479Z,3.00
2018-06-19T06:39:24.050Z,3.67
2018-06-19T06:42:02.659Z,3.00
2018-06-19T06:44:30.258Z,2.90
2018-06-19T06:46:57.843Z,3.20
2018-06-19T06:49:25.930Z,3.33
2018-06-19T06:51:53.555Z,3.20
2018-06-19T06:54:21.129Z,2.70
2018-06-19T06:56:48.725Z,2.80
2018-06-19T06:59:16.369Z,2.90
2018-06-19T07:01:43.948Z,3.07
2018-06-19T07:04:11.543Z,3.07
2018-06-19T07:06:39.128Z,2.63
2018-06-19T07:09:07.882Z,2.60
2018-06-19T07:11:35.497Z,2.97
2018-06-19T07:14:03.166Z,2.80
2018-06-19T07:16:30.814Z,2.60
2018-06-19T07:18:58.662Z,2.80
2018-06-19T07:21:26.201Z,2.30
2018-06-19T07:23:53.798Z,2.57
2018-06-19T07:26:21.412Z,2.97
2018-06-19T07:28:49.146Z,2.77
2018-06-19T07:31:16.722Z,2.73
2018-06-19T07:33:44.337Z,2.70
2018-06-19T07:36:12.617Z,2.63
2018-06-19T07:38:40.269Z,2.40
2018-06-19T07:41:07.874Z,2.63
2018-06-19T07:43:35.572Z,2.70
2018-06-19T07:46:03.229Z,2.20
2018-06-19T07:48:30.840Z,2.53
2018-06-19T07:50:58.569Z,2.93
2018-06-19T07:53:26.185Z,2.57
2018-06-19T07:55:53.745Z,2.57
2018-06-19T07:58:21.369Z,2.50
2018-06-19T08:00:49.047Z,2.20
2018-06-19T08:03:16.663Z,2.37
2018-06-19T08:05:44.292Z,2.17
2018-06-19T08:08:11.863Z,2.57
2018-06-19T08:10:39.755Z,2.30
2018-06-19T08:13:07.318Z,2.20
2018-06-19T08:15:34.874Z,2.93
2018-06-19T08:18:02.466Z,2.13
2018-06-19T08:20:30.525Z,2.50
2018-06-19T08:22:58.090Z,2.40
2018-06-19T08:25:25.704Z,2.80
2018-06-19T08:27:53.418Z,2.60
2018-06-19T08:30:21.045Z,2.10
2018-06-19T08:32:49.094Z,2.60
2018-06-19T08:35:16.675Z,2.40
2018-06-19T08:37:46.133Z,2.50
2018-06-19T08:40:13.746Z,2.53
2018-06-19T08:42:41.505Z,2.47
2018-06-19T08:45:09.125Z,2.70
2018-06-19T08:47:36.717Z,2.63
2018-06-19T08:50:04.677Z,2.90
2018-06-19T08:52:32.437Z,2.13
2018-06-19T08:55:00.007Z,2.73
2018-06-19T08:57:27.617Z,2.60
2018-06-19T08:59:55.205Z,2.40
2018-06-19T09:02:22.787Z,2.17
2018-06-19T09:04:50.405Z,2.10
2018-06-19T09:07:18.318Z,2.33
2018-06-19T09:09:45.915Z,2.00
2018-06-19T09:12:13.505Z,2.20
2018-06-19T09:14:41.103Z,2.30
2018-06-19T09:17:08.712Z,2.30
2018-06-19T09:19:36.308Z,2.10
2018-06-19T09:22:03.899Z,1.87
2018-06-19T09:24:31.557Z,2.10
2018-06-19T09:27:02.405Z,1.80
2018-06-19T09:29:30.007Z,2.60
2018-06-19T09:31:57.674Z,2.07
2018-06-19T09:34:25.334Z,2.10
2018-06-19T09:36:52.979Z,2.70
2018-06-19T09:39:20.617Z,2.47
2018-06-19T09:41:48.204Z,2.00
2018-06-19T09:44:15.808Z,2.40
2018-06-19T09:46:43.393Z,2.50
2018-06-19T09:49:11.050Z,2.40
2018-06-19T09:51:39.390Z,2.57
2018-06-19T09:54:07.230Z,2.53
2018-06-19T09:56:34.922Z,2.50
2018-06-19T09:59:02.683Z,2.63
2018-06-19T10:01:30.244Z,2.67
2018-06-19T10:03:57.844Z,2.80
2018-06-19T10:06:25.457Z,1.97
2018-06-19T10:08:52.989Z,2.57
2018-06-19T10:11:20.636Z,2.63
2018-06-19T10:13:48.234Z,2.23
2018-06-19T10:16:15.829Z,2.40
2018-06-19T10:18:43.447Z,2.97
2018-06-19T10:21:11.036Z,2.00
2018-06-19T10:23:38.613Z,2.37
2018-06-19T10:26:06.200Z,2.77
2018-06-19T10:28:33.844Z,2.27
2018-06-19T10:31:01.415Z,2.03
2018-06-19T10:33:28.972Z,2.70
2018-06-19T10:35:56.528Z,2.83
2018-06-19T10:38:24.100Z,2.23
2018-06-19T10:40:51.689Z,3.87
2018-06-19T10:43:19.286Z,2.60
2018-06-19T10:45:46.853Z,2.80
2018-06-19T10:48:14.527Z,2.17
2018-06-19T10:50:42.096Z,2.70
2018-06-19T10:53:09.661Z,2.60
2018-06-19T10:55:37.344Z,2.20
2018-06-19T10:58:04.873Z,2.27
2018-06-19T11:00:32.460Z,2.23
2018-06-19T11:03:00.025Z,2.37
2018-06-19T11:05:27.619Z,2.20
2018-06-19T11:07:55.217Z,2.10
2018-06-19T11:10:22.808Z,2.00
2018-06-19T11:12:50.379Z,2.10
2018-06-19T11:15:18.026Z,1.80
2018-06-19T11:17:45.677Z,2.00
2018-06-19T11:20:13.313Z,2.23
2018-06-19T11:22:40.892Z,2.17
2018-06-19T11:25:08.569Z,2.00
2018-06-19T11:27:36.160Z,2.10
2018-06-19T11:30:03.844Z,2.60
2018-06-19T11:32:31.421Z,1.97
2018-06-19T11:34:58.979Z,2.23
2018-06-19T11:37:26.753Z,2.53
2018-06-19T11:39:54.329Z,2.20
2018-06-19T11:42:21.928Z,1.90
2018-06-19T11:44:49.659Z,2.27
2018-06-19T11:47:17.197Z,2.30
2018-06-19T11:49:44.775Z,1.70
2018-06-19T11:52:12.385Z,3.00
2018-06-19T11:54:40.007Z,2.10
2018-06-19T11:57:07.633Z,2.20
2018-06-19T11:59:35.193Z,2.50
2018-06-19T12:02:02.829Z,2.97
2018-06-19T12:04:30.383Z,2.43
2018-06-19T12:06:57.965Z,2.40
2018-06-19T12:09:25.578Z,2.20
2018-06-19T12:11:53.184Z,2.60
2018-06-19T12:14:20.765Z,2.47
2018-06-19T12:16:48.412Z,1.87
2018-06-19T12:19:15.982Z,2.70
2018-06-19T12:21:43.676Z,2.43
2018-06-19T12:24:11.261Z,2.70
2018-06-19T12:26:38.852Z,2.30
2018-06-19T12:29:06.546Z,2.07
2018-06-19T12:31:34.117Z,2.53
2018-06-19T12:34:01.790Z,6.10
2018-06-19T12:36:29.416Z,2.23
2018-06-19T12:38:57.004Z,1.90
2018-06-19T12:41:29.012Z,2.10
2018-06-19T12:43:56.622Z,1.77
2018-06-19T12:46:24.214Z,1.97
2018-06-19T12:48:51.802Z,2.03
2018-06-19T12:51:40.103Z,1.93
2018-06-19T12:54:13.269Z,1.90
2018-06-19T12:56:40.836Z,1.97
2018-06-19T12:59:08.407Z,1.80
2018-06-19T13:01:36.036Z,2.20
2018-06-19T13:04:09.100Z,1.70
2018-06-19T13:06:37.123Z,2.13
2018-06-19T13:09:06.625Z,1.90
2018-06-19T13:11:34.284Z,2.10
2018-06-19T13:14:07.358Z,1.50
2018-06-19T13:16:40.331Z,1.70
2018-06-19T13:19:13.279Z,2.33
2018-06-19T13:21:40.857Z,4.00
2018-06-19T13:24:08.442Z,2.10
2018-06-19T13:26:36.026Z,1.80
2018-06-19T13:29:34.157Z,1.80
2018-06-19T13:32:02.187Z,2.07
2018-06-19T13:34:29.857Z,2.03
2018-06-19T13:36:57.432Z,1.73
2018-06-19T13:39:25.058Z,1.90
2018-06-19T13:41:58.155Z,2.20
2018-06-19T13:44:31.313Z,2.97
2018-06-19T13:46:58.918Z,2.10
2018-06-19T13:49:26.567Z,1.80
2018-06-19T13:51:54.128Z,2.20
2018-06-19T13:54:21.744Z,2.30
2018-06-19T13:56:58.526Z,2.20
2018-06-19T13:59:26.112Z,2.50
2018-06-19T14:01:53.781Z,2.40
2018-06-19T14:04:21.334Z,2.40
2018-06-19T14:06:48.895Z,2.00
2018-06-19T14:09:26.865Z,2.20
2018-06-19T14:12:05.396Z,2.40
2018-06-19T14:14:32.949Z,1.97
2018-06-19T14:17:00.572Z,2.17
2018-06-19T14:19:28.362Z,2.60
2018-06-19T14:21:55.869Z,2.40
2018-06-19T14:24:23.445Z,2.40
2018-06-19T14:26:51.098Z,2.80
2018-06-19T14:29:18.657Z,2.20
2018-06-19T14:31:46.238Z,2.47
2018-06-19T14:34:13.863Z,2.03
2018-06-19T14:36:41.457Z,2.50
2018-06-19T14:39:09.446Z,2.10
2018-06-19T14:41:36.985Z,2.00
2018-06-19T14:44:04.593Z,2.07
2018-06-19T14:46:32.196Z,2.10
2018-06-19T14:48:59.852Z,2.20
2018-06-19T14:51:27.526Z,2.10
2018-06-19T14:53:55.105Z,2.33
2018-06-19T14:56:22.727Z,2.47
2018-06-19T14:58:52.594Z,2.03
2018-06-19T15:01:20.324Z,2.40
2018-06-19T15:03:47.925Z,1.80
2018-06-19T15:06:15.501Z,2.13
2018-06-19T15:08:43.110Z,2.07
2018-06-19T15:11:10.694Z,2.37
2018-06-19T15:13:38.274Z,2.43
2018-06-19T15:16:05.865Z,2.00
2018-06-19T15:18:33.449Z,2.30
2018-06-19T15:21:01.044Z,2.27
2018-06-19T15:23:28.630Z,2.20
2018-06-19T15:25:56.236Z,2.40
2018-06-19T15:28:23.892Z,2.23
2018-06-19T15:30:51.489Z,2.10
2018-06-19T15:33:19.186Z,2.40
2018-06-19T15:35:47.038Z,2.23
2018-06-19T15:38:14.654Z,2.30
2018-06-19T15:40:42.585Z,2.00
2018-06-19T15:43:10.199Z,2.47
2018-06-19T15:45:37.792Z,2.30
2018-06-19T15:48:05.401Z,2.23
2018-06-19T15:50:33.044Z,2.20
2018-06-19T15:53:00.620Z,2.40
2018-06-19T15:55:28.220Z,2.17
2018-06-19T15:57:55.793Z,2.53
2018-06-19T16:00:23.407Z,2.20
2018-06-19T16:02:51.007Z,2.33
2018-06-19T16:05:18.623Z,1.97
2018-06-19T16:07:51.781Z,2.10
2018-06-19T16:10:19.363Z,2.30
2018-06-19T16:12:46.982Z,2.13
2018-06-19T16:15:15.494Z,2.03
2018-06-19T16:17:43.112Z,2.37
2018-06-19T16:20:10.710Z,2.20
2018-06-19T16:22:38.273Z,2.53
2018-06-19T16:25:05.874Z,3.10
2018-06-19T16:27:33.611Z,2.30
2018-06-19T16:30:01.170Z,1.90
2018-06-19T16:32:28.735Z,2.57
2018-06-19T16:34:56.319Z,2.20
2018-06-19T16:37:23.956Z,2.10
2018-06-19T16:39:51.569Z,2.60
2018-06-19T16:42:19.205Z,3.00
2018-06-19T16:44:46.801Z,2.10
2018-06-19T16:47:14.832Z,2.77
2018-06-19T16:49:42.420Z,2.07
2018-06-19T16:52:10.044Z,2.10
2018-06-19T16:54:37.648Z,2.40
2018-06-19T16:57:05.370Z,2.73
2018-06-19T16:59:33.028Z,2.53
2018-06-19T17:02:00.632Z,2.90
2018-06-19T17:04:28.377Z,2.37
2018-06-19T17:06:56.037Z,2.27
2018-06-19T17:09:23.694Z,2.43
2018-06-19T17:11:51.329Z,4.10
2018-06-19T17:14:18.974Z,2.57
2018-06-19T17:16:46.666Z,2.80
2018-06-19T17:19:14.288Z,2.53
2018-06-19T17:21:42.006Z,2.83
2018-06-19T17:24:09.712Z,2.70
2018-06-19T17:26:37.350Z,2.70
2018-06-19T17:29:05.040Z,2.87
2018-06-19T17:31:32.673Z,3.33
2018-06-19T17:34:00.288Z,2.60
2018-06-19T17:36:27.947Z,2.90
2018-06-19T17:38:55.572Z,3.00
2018-06-19T17:41:24.226Z,2.67
2018-06-19T17:43:51.911Z,2.93
2018-06-19T17:46:19.609Z,3.20
2018-06-19T17:48:47.334Z,3.10
2018-06-19T17:51:15.106Z,3.00
2018-06-19T17:53:42.794Z,3.40
2018-06-19T17:56:10.428Z,3.30
2018-06-19T17:58:38.074Z,3.70
2018-06-19T18:01:06.081Z,3.60
2018-06-19T18:03:33.757Z,3.40
2018-06-19T18:06:01.417Z,3.20
2018-06-19T18:08:29.074Z,3.27
2018-06-19T18:10:56.696Z,3.60
2018-06-19T18:13:24.428Z,3.37
2018-06-19T18:15:52.108Z,3.90
2018-06-19T18:18:19.810Z,4.13
2018-06-19T18:20:47.424Z,3.63
2018-06-19T18:23:15.047Z,3.40
2018-06-19T18:25:42.737Z,2.50
2018-06-19T18:28:10.347Z,3.70
2018-06-19T18:30:37.959Z,3.47
2018-06-19T18:33:05.625Z,3.60
2018-06-19T18:35:33.256Z,3.03
2018-06-19T18:38:00.885Z,3.37
2018-06-19T18:40:28.490Z,2.90
2018-06-19T18:42:56.144Z,3.67
2018-06-19T18:45:23.941Z,3.23
2018-06-19T18:47:51.597Z,3.47
2018-06-19T18:50:19.201Z,3.37
2018-06-19T18:52:46.882Z,3.00
2018-06-19T18:55:14.478Z,3.80
2018-06-19T18:57:42.120Z,3.30
2018-06-19T19:00:09.719Z,3.30
2018-06-19T19:02:37.326Z,3.80
2018-06-19T19:05:04.989Z,3.53
2018-06-19T19:07:32.820Z,3.93
2018-06-19T19:10:05.653Z,3.37
2018-06-19T19:12:33.311Z,3.63
2018-06-19T19:15:06.135Z,3.00
2018-06-19T19:17:39.045Z,3.50
2018-06-19T19:20:06.674Z,4.23
2018-06-19T19:22:34.309Z,3.40
2018-06-19T19:25:01.929Z,3.70
2018-06-19T19:27:34.782Z,3.63
2018-06-19T19:30:02.479Z,3.70
2018-06-19T19:32:30.094Z,3.80
2018-06-19T19:34:57.686Z,3.53
2018-06-19T19:37:30.698Z,4.00
2018-06-19T19:39:58.314Z,3.80
2018-06-19T19:42:25.937Z,3.80
2018-06-19T19:44:53.580Z,4.27
2018-06-19T19:47:26.433Z,3.67
2018-06-19T19:49:54.068Z,4.10
2018-06-19T19:52:21.697Z,3.70
2018-06-19T19:54:49.431Z,3.60
2018-06-19T19:57:22.379Z,3.87
2018-06-19T19:59:50.014Z,3.90
2018-06-19T20:02:17.589Z,4.07
2018-06-19T20:04:45.232Z,3.50
2018-06-19T20:07:12.816Z,4.60
2018-06-19T20:09:40.394Z,4.10
2018-06-19T20:12:08.137Z,3.90
2018-06-19T20:14:35.736Z,4.00
2018-06-19T20:17:03.394Z,4.03
2018-06-19T20:19:30.998Z,3.80
2018-06-19T20:21:58.634Z,4.80
2018-06-19T20:24:26.235Z,4.30
2018-06-19T20:26:54.227Z,4.03
2018-06-19T20:29:21.855Z,4.03
2018-06-19T20:31:49.515Z,3.80
2018-06-19T20:34:17.140Z,4.37
2018-06-19T20:36:44.761Z,4.20
2018-06-19T20:39:12.372Z,4.23
2018-06-19T20:41:40.069Z,3.90
2018-06-19T20:44:07.793Z,4.53
2018-06-19T20:46:35.388Z,4.13
2018-06-19T20:49:02.997Z,4.07
2018-06-19T20:51:30.653Z,4.20
2018-06-19T20:53:58.221Z,4.20
2018-06-19T20:56:25.820Z,4.50
2018-06-19T20:58:53.423Z,4.67
2018-06-19T21:01:21.449Z,4.03
2018-06-19T21:03:49.576Z,4.60
2018-06-19T21:06:17.271Z,4.90
2018-06-19T21:08:44.847Z,4.57
2018-06-19T21:11:13.393Z,4.40
2018-06-19T21:13:40.955Z,4.27
2018-06-19T21:16:09.232Z,4.43
2018-06-19T21:18:37.199Z,4.07
2018-06-19T21:21:04.784Z,5.40
2018-06-19T21:23:32.384Z,4.47
2018-06-19T21:25:59.960Z,4.40
2018-06-19T21:28:27.567Z,4.07
2018-06-19T21:30:55.172Z,4.00
2018-06-19T21:33:22.772Z,4.37
2018-06-19T21:35:50.348Z,4.70
2018-06-19T21:38:17.912Z,4.43
2018-06-19T21:40:45.490Z,4.77
2018-06-19T21:43:13.060Z,4.67
2018-06-19T21:45:40.644Z,4.90
2018-06-19T21:48:08.236Z,4.90
2018-06-19T21:50:35.806Z,4.80
2018-06-19T21:53:03.398Z,4.50
2018-06-19T21:55:30.949Z,4.80
2018-06-19T21:57:58.513Z,4.50
2018-06-19T22:00:26.124Z,4.63
2018-06-19T22:02:53.678Z,4.23
2018-06-19T22:05:21.231Z,4.30
2018-06-19T22:07:48.781Z,4.83
2018-06-19T22:10:16.372Z,5.13
2018-06-19T22:12:43.964Z,4.93
2018-06-19T22:15:11.555Z,5.40
2018-06-19T22:17:39.140Z,5.00
2018-06-19T22:20:06.693Z,4.70
2018-06-19T22:22:34.244Z,4.50
2018-06-19T22:25:01.916Z,5.20
2018-06-19T22:27:29.476Z,5.40
2018-06-19T22:29:57.060Z,5.30
2018-06-19T22:32:24.620Z,5.33
2018-06-19T22:34:52.192Z,5.20
2018-06-19T22:37:19.779Z,5.00
2018-06-19T22:39:47.379Z,5.10
2018-06-19T22:42:14.939Z,4.87
2018-06-19T22:44:42.529Z,5.20
2018-06-19T22:47:10.124Z,5.20
2018-06-19T22:49:37.705Z,5.63
2018-06-19T22:52:05.311Z,5.47
2018-06-19T22:54:32.872Z,4.97
2018-06-19T22:57:00.425Z,5.43
2018-06-19T22:59:28.013Z,5.03
2018-06-19T23:01:55.653Z,5.57
2018-06-19T23:04:23.225Z,5.20
2018-06-19T23:06:50.864Z,5.10
2018-06-19T23:09:18.440Z,5.10
2018-06-19T23:11:46.045Z,5.53
2018-06-19T23:14:13.607Z,5.53
2018-06-19T23:16:41.193Z,5.93
2018-06-19T23:19:08.737Z,5.37
2018-06-19T23:21:36.305Z,5.57
2018-06-19T23:24:03.872Z,5.77
2018-06-19T23:26:31.457Z,5.90
2018-06-19T23:28:59.041Z,5.50
2018-06-19T23:31:26.592Z,5.47
2018-06-19T23:33:54.209Z,5.37
2018-06-19T23:36:21.769Z,5.20
2018-06-19T23:38:49.328Z,5.23
2018-06-19T23:41:16.900Z,5.07
2018-06-19T23:43:44.460Z,5.23
2018-06-19T23:46:12.010Z,5.10
2018-06-19T23:48:39.568Z,5.03
2018-06-19T23:51:07.134Z,4.87
2018-06-19T23:53:34.701Z,4.60
2018-06-19T23:56:02.317Z,4.60
2018-06-19T23:58:29.900Z,4.87
